sensor_id;sensor_type;location;lat;lon;timestamp;pressure;altitude;pressure_sealevel;temperature;humidity
8320;BME280;4197;42.130;24.746;2022-08-11T00:01:12;99397.47;;;22.85;65.00
8320;BME280;4197;42.130;24.746;2022-08-11T00:03:43;99399.13;;;22.83;65.52
8320;BME280;4197;42.130;24.746;2022-08-11T00:06:15;99396.47;;;22.79;65.99
8320;BME280;4197;42.130;24.746;2022-08-11T00:08:51;99402.00;;;22.79;66.30
8320;BME280;4197;42.130;24.746;2022-08-11T00:11:21;99408.06;;;22.74;67.07
8320;BME280;4197;42.130;24.746;2022-08-11T00:13:59;99397.22;;;22.67;67.92
8320;BME280;4197;42.130;24.746;2022-08-11T00:16:28;99396.19;;;22.61;68.44
8320;BME280;4197;42.130;24.746;2022-08-11T00:18:57;99390.00;;;22.57;68.63
8320;BME280;4197;42.130;24.746;2022-08-11T00:21:28;99394.75;;;22.56;68.83
8320;BME280;4197;42.130;24.746;2022-08-11T00:24:18;99393.63;;;22.54;68.91
8320;BME280;4197;42.130;24.746;2022-08-11T00:26:48;99392.28;;;22.45;69.13
8320;BME280;4197;42.130;24.746;2022-08-11T00:29:17;99397.09;;;22.41;69.63
8320;BME280;4197;42.130;24.746;2022-08-11T00:31:48;99398.69;;;22.42;69.86
8320;BME280;4197;42.130;24.746;2022-08-11T00:34:20;99394.09;;;22.36;70.20
8320;BME280;4197;42.130;24.746;2022-08-11T00:36:52;99402.72;;;22.38;70.50
8320;BME280;4197;42.130;24.746;2022-08-11T00:39:23;99402.91;;;22.31;70.92
8320;BME280;4197;42.130;24.746;2022-08-11T00:42:05;99400.78;;;22.22;71.76
8320;BME280;4197;42.130;24.746;2022-08-11T00:44:44;99403.34;;;22.13;72.51
8320;BME280;4197;42.130;24.746;2022-08-11T00:47:26;99398.69;;;22.10;73.14
8320;BME280;4197;42.130;24.746;2022-08-11T00:50:07;99410.63;;;22.07;73.74
8320;BME280;4197;42.130;24.746;2022-08-11T00:53:11;99413.03;;;22.04;74.66
8320;BME280;4197;42.130;24.746;2022-08-11T00:59:20;99405.34;;;21.96;76.42
8320;BME280;4197;42.130;24.746;2022-08-11T01:02:16;99403.13;;;21.91;76.59
8320;BME280;4197;42.130;24.746;2022-08-11T01:05:37;99406.47;;;21.82;77.52
8320;BME280;4197;42.130;24.746;2022-08-11T01:08:37;99406.91;;;21.80;77.64
8320;BME280;4197;42.130;24.746;2022-08-11T01:11:51;99396.22;;;21.82;77.26
8320;BME280;4197;42.130;24.746;2022-08-11T01:14:46;99391.41;;;21.87;76.87
8320;BME280;4197;42.130;24.746;2022-08-11T01:17:54;99394.66;;;21.81;76.52
8320;BME280;4197;42.130;24.746;2022-08-11T01:21:02;99385.94;;;21.83;76.12
8320;BME280;4197;42.130;24.746;2022-08-11T01:30:48;99386.03;;;21.79;75.10
8320;BME280;4197;42.130;24.746;2022-08-11T01:36:59;99384.91;;;21.77;74.63
8320;BME280;4197;42.130;24.746;2022-08-11T01:39:53;99385.34;;;21.75;74.80
8320;BME280;4197;42.130;24.746;2022-08-11T01:42:52;99387.59;;;21.80;73.58
8320;BME280;4197;42.130;24.746;2022-08-11T01:45:49;99388.44;;;21.77;73.52
8320;BME280;4197;42.130;24.746;2022-08-11T01:48:32;99385.28;;;21.79;73.92
8320;BME280;4197;42.130;24.746;2022-08-11T01:51:07;99389.22;;;21.78;73.13
8320;BME280;4197;42.130;24.746;2022-08-11T01:53:54;99392.44;;;21.76;72.94
8320;BME280;4197;42.130;24.746;2022-08-11T01:56:32;99382.94;;;21.77;72.27
8320;BME280;4197;42.130;24.746;2022-08-11T01:59:13;99391.66;;;21.76;72.55
8320;BME280;4197;42.130;24.746;2022-08-11T02:01:59;99382.56;;;21.75;72.41
8320;BME280;4197;42.130;24.746;2022-08-11T02:04:37;99383.13;;;21.70;72.27
8320;BME280;4197;42.130;24.746;2022-08-11T02:07:14;99378.72;;;21.73;72.15
8320;BME280;4197;42.130;24.746;2022-08-11T02:10:05;99366.81;;;21.59;72.57
8320;BME280;4197;42.130;24.746;2022-08-11T02:13:14;99372.06;;;21.54;72.53
8320;BME280;4197;42.130;24.746;2022-08-11T02:16:07;99373.63;;;21.55;72.46
8320;BME280;4197;42.130;24.746;2022-08-11T02:18:41;99370.50;;;21.53;72.19
8320;BME280;4197;42.130;24.746;2022-08-11T02:21:40;99376.03;;;21.53;72.43
8320;BME280;4197;42.130;24.746;2022-08-11T02:24:30;99374.13;;;21.50;72.24
8320;BME280;4197;42.130;24.746;2022-08-11T02:27:06;99372.50;;;21.52;72.25
8320;BME280;4197;42.130;24.746;2022-08-11T02:29:42;99380.16;;;21.61;71.69
8320;BME280;4197;42.130;24.746;2022-08-11T02:32:23;99365.25;;;21.58;71.56
8320;BME280;4197;42.130;24.746;2022-08-11T02:35:17;99365.19;;;21.62;71.86
8320;BME280;4197;42.130;24.746;2022-08-11T02:37:50;99378.16;;;21.61;71.61
8320;BME280;4197;42.130;24.746;2022-08-11T02:40:29;99376.97;;;21.63;71.42
8320;BME280;4197;42.130;24.746;2022-08-11T02:43:08;99369.38;;;21.67;71.12
8320;BME280;4197;42.130;24.746;2022-08-11T02:45:52;99375.16;;;21.56;71.38
8320;BME280;4197;42.130;24.746;2022-08-11T02:48:38;99372.41;;;21.56;71.44
8320;BME280;4197;42.130;24.746;2022-08-11T02:51:36;99377.75;;;21.63;71.20
8320;BME280;4197;42.130;24.746;2022-08-11T02:54:12;99371.56;;;21.59;71.59
8320;BME280;4197;42.130;24.746;2022-08-11T02:56:49;99374.66;;;21.61;71.35
8320;BME280;4197;42.130;24.746;2022-08-11T02:59:26;99374.47;;;21.68;70.95
8320;BME280;4197;42.130;24.746;2022-08-11T03:02:30;99383.63;;;21.65;70.85
8320;BME280;4197;42.130;24.746;2022-08-11T03:05:11;99379.22;;;21.68;70.58
8320;BME280;4197;42.130;24.746;2022-08-11T03:07:54;99387.56;;;21.64;70.41
8320;BME280;4197;42.130;24.746;2022-08-11T03:10:35;99375.34;;;21.65;70.26
8320;BME280;4197;42.130;24.746;2022-08-11T03:13:15;99384.03;;;21.64;69.99
8320;BME280;4197;42.130;24.746;2022-08-11T03:16:14;99383.44;;;21.56;70.46
8320;BME280;4197;42.130;24.746;2022-08-11T03:19:10;99384.50;;;21.62;70.08
8320;BME280;4197;42.130;24.746;2022-08-11T03:21:46;99383.78;;;21.58;70.63
8320;BME280;4197;42.130;24.746;2022-08-11T03:24:36;99386.44;;;21.61;70.55
8320;BME280;4197;42.130;24.746;2022-08-11T03:27:09;99397.25;;;21.72;70.23
8320;BME280;4197;42.130;24.746;2022-08-11T03:29:41;99388.63;;;21.70;70.30
8320;BME280;4197;42.130;24.746;2022-08-11T03:32:25;99385.94;;;21.67;70.45
8320;BME280;4197;42.130;24.746;2022-08-11T03:34:57;99383.28;;;21.63;70.73
8320;BME280;4197;42.130;24.746;2022-08-11T03:37:37;99380.78;;;21.69;70.68
8320;BME280;4197;42.130;24.746;2022-08-11T03:40:32;99379.31;;;21.80;70.21
8320;BME280;4197;42.130;24.746;2022-08-11T03:43:29;99381.69;;;21.95;69.69
8320;BME280;4197;42.130;24.746;2022-08-11T03:46:20;99385.88;;;21.87;69.98
8320;BME280;4197;42.130;24.746;2022-08-11T03:49:00;99379.75;;;21.79;70.64
8320;BME280;4197;42.130;24.746;2022-08-11T03:51:44;99385.88;;;21.87;70.51
8320;BME280;4197;42.130;24.746;2022-08-11T03:54:28;99385.50;;;22.01;69.57
8320;BME280;4197;42.130;24.746;2022-08-11T04:03:44;99386.03;;;22.29;68.85
8320;BME280;4197;42.130;24.746;2022-08-11T04:06:52;99391.78;;;22.34;68.63
8320;BME280;4197;42.130;24.746;2022-08-11T04:13:12;99393.19;;;22.55;67.14
8320;BME280;4197;42.130;24.746;2022-08-11T04:19:29;99402.59;;;22.87;65.61
8320;BME280;4197;42.130;24.746;2022-08-11T04:22:28;99400.13;;;22.89;65.68
8320;BME280;4197;42.130;24.746;2022-08-11T04:25:22;99396.94;;;22.90;65.85
8320;BME280;4197;42.130;24.746;2022-08-11T04:31:29;99406.00;;;22.91;65.60
8320;BME280;4197;42.130;24.746;2022-08-11T04:34:43;99407.22;;;22.90;65.19
8320;BME280;4197;42.130;24.746;2022-08-11T04:37:39;99406.19;;;23.00;64.72
8320;BME280;4197;42.130;24.746;2022-08-11T04:40:24;99408.94;;;23.00;64.63
8320;BME280;4197;42.130;24.746;2022-08-11T04:46:26;99399.00;;;23.15;64.49
8320;BME280;4197;42.130;24.746;2022-08-11T04:49:24;99407.31;;;23.28;63.24
8320;BME280;4197;42.130;24.746;2022-08-11T04:52:33;99404.09;;;23.30;63.13
8320;BME280;4197;42.130;24.746;2022-08-11T04:55:49;99404.31;;;23.35;63.18
8320;BME280;4197;42.130;24.746;2022-08-11T04:58:54;99402.47;;;23.45;62.98
8320;BME280;4197;42.130;24.746;2022-08-11T05:02:09;99397.47;;;23.66;62.53
8320;BME280;4197;42.130;24.746;2022-08-11T05:05:00;99400.47;;;23.84;62.02
8320;BME280;4197;42.130;24.746;2022-08-11T05:11:19;99398.94;;;24.18;61.25
8320;BME280;4197;42.130;24.746;2022-08-11T05:14:06;99409.00;;;24.24;60.81
8320;BME280;4197;42.130;24.746;2022-08-11T05:17:10;99403.00;;;24.39;60.20
8320;BME280;4197;42.130;24.746;2022-08-11T05:19:56;99408.28;;;24.46;60.63
8320;BME280;4197;42.130;24.746;2022-08-11T05:22:47;99412.84;;;24.40;60.45
8320;BME280;4197;42.130;24.746;2022-08-11T05:25:34;99410.41;;;24.42;60.41
8320;BME280;4197;42.130;24.746;2022-08-11T05:28:49;99416.50;;;24.37;60.46
8320;BME280;4197;42.130;24.746;2022-08-11T05:31:55;99413.72;;;24.49;59.91
8320;BME280;4197;42.130;24.746;2022-08-11T05:34:47;99415.28;;;24.51;60.38
8320;BME280;4197;42.130;24.746;2022-08-11T05:37:30;99404.19;;;24.38;60.75
8320;BME280;4197;42.130;24.746;2022-08-11T05:40:06;99406.00;;;24.44;60.36
8320;BME280;4197;42.130;24.746;2022-08-11T05:42:56;99414.38;;;24.41;60.75
8320;BME280;4197;42.130;24.746;2022-08-11T05:45:55;99407.88;;;24.35;60.93
8320;BME280;4197;42.130;24.746;2022-08-11T05:48:42;99409.13;;;24.21;62.17
8320;BME280;4197;42.130;24.746;2022-08-11T05:51:33;99414.25;;;24.22;62.28
8320;BME280;4197;42.130;24.746;2022-08-11T05:54:25;99417.84;;;24.32;61.57
8320;BME280;4197;42.130;24.746;2022-08-11T05:57:18;99416.66;;;24.33;61.50
8320;BME280;4197;42.130;24.746;2022-08-11T06:00:08;99416.50;;;24.37;60.73
8320;BME280;4197;42.130;24.746;2022-08-11T06:02:42;99418.41;;;24.27;61.09
8320;BME280;4197;42.130;24.746;2022-08-11T06:05:11;99413.13;;;24.20;61.51
8320;BME280;4197;42.130;24.746;2022-08-11T06:07:40;99416.66;;;24.20;61.98
8320;BME280;4197;42.130;24.746;2022-08-11T06:10:25;99411.00;;;24.24;62.28
8320;BME280;4197;42.130;24.746;2022-08-11T06:12:56;99410.44;;;24.29;61.74
8320;BME280;4197;42.130;24.746;2022-08-11T06:15:27;99412.50;;;24.38;61.13
8320;BME280;4197;42.130;24.746;2022-08-11T06:17:58;99408.97;;;24.37;61.11
8320;BME280;4197;42.130;24.746;2022-08-11T06:20:29;99415.16;;;24.41;61.61
8320;BME280;4197;42.130;24.746;2022-08-11T06:23:04;99406.44;;;24.65;59.74
8320;BME280;4197;42.130;24.746;2022-08-11T06:25:34;99410.66;;;24.69;59.58
8320;BME280;4197;42.130;24.746;2022-08-11T06:28:05;99405.09;;;24.69;59.65
8320;BME280;4197;42.130;24.746;2022-08-11T06:30:36;99410.56;;;24.82;59.03
8320;BME280;4197;42.130;24.746;2022-08-11T06:33:11;99405.88;;;24.92;58.81
8320;BME280;4197;42.130;24.746;2022-08-11T06:36:02;99398.63;;;24.95;58.50
8320;BME280;4197;42.130;24.746;2022-08-11T06:38:48;99401.59;;;25.00;58.08
8320;BME280;4197;42.130;24.746;2022-08-11T06:41:22;99403.00;;;25.05;58.17
8320;BME280;4197;42.130;24.746;2022-08-11T06:44:05;99406.63;;;25.14;57.84
8320;BME280;4197;42.130;24.746;2022-08-11T06:46:37;99403.56;;;25.22;57.42
8320;BME280;4197;42.130;24.746;2022-08-11T06:49:09;99406.53;;;25.27;57.75
8320;BME280;4197;42.130;24.746;2022-08-11T06:51:59;99411.22;;;25.40;56.82
8320;BME280;4197;42.130;24.746;2022-08-11T06:54:32;99400.78;;;25.53;56.19
8320;BME280;4197;42.130;24.746;2022-08-11T06:57:02;99395.50;;;25.46;57.09
8320;BME280;4197;42.130;24.746;2022-08-11T06:59:57;99404.16;;;25.48;56.49
8320;BME280;4197;42.130;24.746;2022-08-11T07:02:48;99394.16;;;25.50;56.25
8320;BME280;4197;42.130;24.746;2022-08-11T07:05:24;99399.38;;;25.48;56.60
8320;BME280;4197;42.130;24.746;2022-08-11T07:08:31;99404.44;;;25.41;56.35
8320;BME280;4197;42.130;24.746;2022-08-11T07:11:51;99400.66;;;25.66;56.90
8320;BME280;4197;42.130;24.746;2022-08-11T07:14:44;99408.47;;;25.89;54.95
8320;BME280;4197;42.130;24.746;2022-08-11T07:17:35;99404.16;;;25.88;54.69
8320;BME280;4197;42.130;24.746;2022-08-11T07:20:07;99404.63;;;25.87;54.67
8320;BME280;4197;42.130;24.746;2022-08-11T07:22:58;99406.19;;;26.06;54.74
8320;BME280;4197;42.130;24.746;2022-08-11T07:25:48;99405.59;;;26.11;54.17
8320;BME280;4197;42.130;24.746;2022-08-11T07:28:37;99401.88;;;26.14;54.20
8320;BME280;4197;42.130;24.746;2022-08-11T07:31:31;99411.16;;;26.11;54.30
8320;BME280;4197;42.130;24.746;2022-08-11T07:34:11;99412.06;;;26.17;54.27
8320;BME280;4197;42.130;24.746;2022-08-11T07:36:48;99408.84;;;26.37;52.72
8320;BME280;4197;42.130;24.746;2022-08-11T07:39:20;99406.06;;;26.46;52.45
8320;BME280;4197;42.130;24.746;2022-08-11T07:41:51;99411.78;;;26.52;52.77
8320;BME280;4197;42.130;24.746;2022-08-11T07:44:20;99404.06;;;26.47;53.92
8320;BME280;4197;42.130;24.746;2022-08-11T07:46:58;99414.28;;;26.59;53.37
8320;BME280;4197;42.130;24.746;2022-08-11T07:49:47;99408.06;;;26.74;52.58
8320;BME280;4197;42.130;24.746;2022-08-11T07:52:35;99401.56;;;26.77;52.25
8320;BME280;4197;42.130;24.746;2022-08-11T07:55:13;99407.28;;;26.91;52.07
8320;BME280;4197;42.130;24.746;2022-08-11T07:57:44;99399.69;;;27.01;51.61
8320;BME280;4197;42.130;24.746;2022-08-11T08:00:48;99400.97;;;26.91;52.25
8320;BME280;4197;42.130;24.746;2022-08-11T08:03:48;99394.44;;;26.94;52.51
8320;BME280;4197;42.130;24.746;2022-08-11T08:06:35;99391.78;;;27.09;52.44
8320;BME280;4197;42.130;24.746;2022-08-11T08:09:23;99391.63;;;27.22;51.49
8320;BME280;4197;42.130;24.746;2022-08-11T08:12:12;99394.94;;;27.44;50.84
8320;BME280;4197;42.130;24.746;2022-08-11T08:15:00;99392.41;;;27.55;49.66
8320;BME280;4197;42.130;24.746;2022-08-11T08:17:51;99393.94;;;27.56;48.85
8320;BME280;4197;42.130;24.746;2022-08-11T08:20:45;99382.97;;;27.53;48.99
8320;BME280;4197;42.130;24.746;2022-08-11T08:23:16;99381.59;;;27.48;49.43
8320;BME280;4197;42.130;24.746;2022-08-11T08:26:02;99380.38;;;27.73;48.41
8320;BME280;4197;42.130;24.746;2022-08-11T08:28:40;99385.50;;;27.75;47.83
8320;BME280;4197;42.130;24.746;2022-08-11T08:31:12;99381.13;;;27.74;48.03
8320;BME280;4197;42.130;24.746;2022-08-11T08:33:41;99376.75;;;27.58;47.72
8320;BME280;4197;42.130;24.746;2022-08-11T08:36:09;99379.03;;;27.69;48.20
8320;BME280;4197;42.130;24.746;2022-08-11T08:38:39;99379.44;;;27.76;48.05
8320;BME280;4197;42.130;24.746;2022-08-11T08:41:08;99369.72;;;27.72;48.39
8320;BME280;4197;42.130;24.746;2022-08-11T08:43:44;99379.56;;;27.82;48.08
8320;BME280;4197;42.130;24.746;2022-08-11T08:46:19;99377.53;;;27.58;48.66
8320;BME280;4197;42.130;24.746;2022-08-11T08:48:49;99378.47;;;27.55;48.86
8320;BME280;4197;42.130;24.746;2022-08-11T08:51:20;99368.66;;;27.69;49.19
8320;BME280;4197;42.130;24.746;2022-08-11T08:54:26;99374.72;;;27.92;48.01
8320;BME280;4197;42.130;24.746;2022-08-11T08:56:56;99363.03;;;28.02;47.21
8320;BME280;4197;42.130;24.746;2022-08-11T08:59:29;99366.09;;;28.05;48.04
8320;BME280;4197;42.130;24.746;2022-08-11T09:02:16;99364.91;;;28.20;46.11
8320;BME280;4197;42.130;24.746;2022-08-11T09:05:01;99366.56;;;28.27;45.77
8320;BME280;4197;42.130;24.746;2022-08-11T09:07:31;99365.97;;;28.23;46.26
8320;BME280;4197;42.130;24.746;2022-08-11T09:10:07;99355.63;;;28.38;45.52
8320;BME280;4197;42.130;24.746;2022-08-11T09:12:38;99359.94;;;28.39;45.43
8320;BME280;4197;42.130;24.746;2022-08-11T09:15:10;99359.94;;;28.39;44.93
8320;BME280;4197;42.130;24.746;2022-08-11T09:17:46;99352.78;;;28.48;45.05
8320;BME280;4197;42.130;24.746;2022-08-11T09:20:18;99339.78;;;28.59;44.23
8320;BME280;4197;42.130;24.746;2022-08-11T09:22:48;99344.31;;;28.57;44.54
8320;BME280;4197;42.130;24.746;2022-08-11T09:25:56;99346.25;;;28.65;43.37
8320;BME280;4197;42.130;24.746;2022-08-11T09:28:43;99349.41;;;28.73;42.80
8320;BME280;4197;42.130;24.746;2022-08-11T09:31:14;99344.44;;;28.77;41.48
8320;BME280;4197;42.130;24.746;2022-08-11T09:33:50;99346.44;;;28.62;42.46
8320;BME280;4197;42.130;24.746;2022-08-11T09:36:19;99337.63;;;28.39;40.80
8320;BME280;4197;42.130;24.746;2022-08-11T09:39:06;99339.97;;;28.41;42.04
8320;BME280;4197;42.130;24.746;2022-08-11T09:41:53;99329.03;;;28.52;41.84
8320;BME280;4197;42.130;24.746;2022-08-11T09:44:30;99328.72;;;28.65;41.49
8320;BME280;4197;42.130;24.746;2022-08-11T09:47:22;99332.00;;;28.93;41.10
8320;BME280;4197;42.130;24.746;2022-08-11T09:49:54;99323.94;;;29.10;40.84
8320;BME280;4197;42.130;24.746;2022-08-11T09:52:28;99324.44;;;29.29;39.54
8320;BME280;4197;42.130;24.746;2022-08-11T09:54:58;99316.72;;;29.39;39.00
8320;BME280;4197;42.130;24.746;2022-08-11T09:57:26;99317.84;;;29.47;38.55
8320;BME280;4197;42.130;24.746;2022-08-11T10:00:13;99313.88;;;29.53;38.36
8320;BME280;4197;42.130;24.746;2022-08-11T10:02:45;99315.09;;;29.67;37.14
8320;BME280;4197;42.130;24.746;2022-08-11T10:05:16;99318.97;;;29.55;37.82
8320;BME280;4197;42.130;24.746;2022-08-11T10:08:03;99314.22;;;29.61;37.08
8320;BME280;4197;42.130;24.746;2022-08-11T10:10:35;99317.09;;;29.46;37.25
8320;BME280;4197;42.130;24.746;2022-08-11T10:13:06;99317.97;;;29.38;38.38
8320;BME280;4197;42.130;24.746;2022-08-11T10:15:59;99311.06;;;29.33;38.38
8320;BME280;4197;42.130;24.746;2022-08-11T10:18:48;99311.69;;;29.43;38.93
8320;BME280;4197;42.130;24.746;2022-08-11T10:21:28;99291.81;;;29.76;38.67
8320;BME280;4197;42.130;24.746;2022-08-11T10:23:58;99299.28;;;30.05;37.83
8320;BME280;4197;42.130;24.746;2022-08-11T10:26:47;99298.41;;;30.19;37.42
8320;BME280;4197;42.130;24.746;2022-08-11T10:29:27;99296.38;;;30.20;37.15
8320;BME280;4197;42.130;24.746;2022-08-11T10:32:19;99297.88;;;30.15;37.65
8320;BME280;4197;42.130;24.746;2022-08-11T10:35:26;99293.09;;;29.75;38.19
8320;BME280;4197;42.130;24.746;2022-08-11T10:37:55;99295.00;;;29.48;39.22
8320;BME280;4197;42.130;24.746;2022-08-11T10:40:36;99293.03;;;29.34;38.58
8320;BME280;4197;42.130;24.746;2022-08-11T10:43:06;99291.38;;;29.07;38.84
8320;BME280;4197;42.130;24.746;2022-08-11T10:45:41;99284.56;;;29.08;39.34
8320;BME280;4197;42.130;24.746;2022-08-11T10:48:34;99280.13;;;29.37;38.52
8320;BME280;4197;42.130;24.746;2022-08-11T10:51:06;99281.41;;;29.56;37.97
8320;BME280;4197;42.130;24.746;2022-08-11T10:53:42;99270.97;;;29.71;38.16
8320;BME280;4197;42.130;24.746;2022-08-11T10:56:31;99270.09;;;29.86;37.42
8320;BME280;4197;42.130;24.746;2022-08-11T10:59:17;99281.31;;;30.12;36.95
8320;BME280;4197;42.130;24.746;2022-08-11T11:01:46;99269.19;;;30.20;37.05
8320;BME280;4197;42.130;24.746;2022-08-11T11:04:15;99269.13;;;30.15;36.86
8320;BME280;4197;42.130;24.746;2022-08-11T11:06:53;99266.50;;;30.06;37.09
8320;BME280;4197;42.130;24.746;2022-08-11T11:09:27;99261.53;;;30.15;36.74
8320;BME280;4197;42.130;24.746;2022-08-11T11:12:01;99264.56;;;30.17;37.52
8320;BME280;4197;42.130;24.746;2022-08-11T11:14:49;99253.13;;;30.15;37.47
8320;BME280;4197;42.130;24.746;2022-08-11T11:17:46;99250.72;;;30.29;35.87
8320;BME280;4197;42.130;24.746;2022-08-11T11:20:33;99246.75;;;30.35;35.41
8320;BME280;4197;42.130;24.746;2022-08-11T11:23:12;99249.59;;;30.41;36.15
8320;BME280;4197;42.130;24.746;2022-08-11T11:29:19;99238.66;;;30.17;35.44
8320;BME280;4197;42.130;24.746;2022-08-11T11:32:05;99239.53;;;30.29;34.66
8320;BME280;4197;42.130;24.746;2022-08-11T11:37:32;99234.22;;;30.31;34.75
8320;BME280;4197;42.130;24.746;2022-08-11T11:40:07;99229.94;;;30.67;34.57
8320;BME280;4197;42.130;24.746;2022-08-11T11:42:38;99228.19;;;31.01;33.38
8320;BME280;4197;42.130;24.746;2022-08-11T11:45:08;99222.16;;;31.20;31.68
8320;BME280;4197;42.130;24.746;2022-08-11T11:47:51;99225.69;;;31.15;31.44
8320;BME280;4197;42.130;24.746;2022-08-11T11:50:24;99217.16;;;30.92;30.44
8320;BME280;4197;42.130;24.746;2022-08-11T11:53:00;99230.66;;;30.62;31.15
8320;BME280;4197;42.130;24.746;2022-08-11T11:55:30;99227.56;;;30.54;31.77
8320;BME280;4197;42.130;24.746;2022-08-11T11:58:00;99211.66;;;30.72;31.88
8320;BME280;4197;42.130;24.746;2022-08-11T12:00:48;99224.78;;;30.92;31.93
8320;BME280;4197;42.130;24.746;2022-08-11T12:03:35;99213.09;;;30.93;32.12
8320;BME280;4197;42.130;24.746;2022-08-11T12:06:06;99204.94;;;30.89;32.04
8320;BME280;4197;42.130;24.746;2022-08-11T12:08:35;99196.84;;;30.97;31.84
8320;BME280;4197;42.130;24.746;2022-08-11T12:11:08;99200.97;;;31.07;32.08
8320;BME280;4197;42.130;24.746;2022-08-11T12:13:56;99193.38;;;31.19;32.19
8320;BME280;4197;42.130;24.746;2022-08-11T12:16:25;99192.94;;;31.32;31.86
8320;BME280;4197;42.130;24.746;2022-08-11T12:19:03;99195.41;;;31.13;32.00
8320;BME280;4197;42.130;24.746;2022-08-11T12:21:33;99183.28;;;30.90;32.45
8320;BME280;4197;42.130;24.746;2022-08-11T12:24:03;99185.38;;;31.01;32.46
8320;BME280;4197;42.130;24.746;2022-08-11T12:26:57;99176.03;;;31.09;32.77
8320;BME280;4197;42.130;24.746;2022-08-11T12:29:45;99185.28;;;31.32;31.95
8320;BME280;4197;42.130;24.746;2022-08-11T12:32:23;99188.53;;;31.20;30.68
8320;BME280;4197;42.130;24.746;2022-08-11T12:34:53;99191.00;;;31.06;30.28
8320;BME280;4197;42.130;24.746;2022-08-11T12:37:27;99192.97;;;30.52;31.42
8320;BME280;4197;42.130;24.746;2022-08-11T12:40:00;99193.41;;;30.44;31.69
8320;BME280;4197;42.130;24.746;2022-08-11T12:43:13;99181.72;;;30.46;32.10
8320;BME280;4197;42.130;24.746;2022-08-11T12:46:06;99178.19;;;30.83;31.53
8320;BME280;4197;42.130;24.746;2022-08-11T12:48:38;99182.88;;;31.03;31.55
8320;BME280;4197;42.130;24.746;2022-08-11T12:51:32;99166.63;;;31.13;31.44
8320;BME280;4197;42.130;24.746;2022-08-11T12:54:51;99174.69;;;30.94;30.81
8320;BME280;4197;42.130;24.746;2022-08-11T12:57:28;99179.69;;;30.84;31.06
8320;BME280;4197;42.130;24.746;2022-08-11T13:00:18;99179.28;;;31.02;31.61
8320;BME280;4197;42.130;24.746;2022-08-11T13:03:06;99180.69;;;31.24;30.83
8320;BME280;4197;42.130;24.746;2022-08-11T13:05:54;99184.72;;;31.17;30.39
8320;BME280;4197;42.130;24.746;2022-08-11T13:08:24;99167.69;;;31.26;30.74
8320;BME280;4197;42.130;24.746;2022-08-11T13:10:55;99180.44;;;31.27;30.46
8320;BME280;4197;42.130;24.746;2022-08-11T13:13:42;99181.91;;;31.17;30.53
8320;BME280;4197;42.130;24.746;2022-08-11T13:16:26;99179.66;;;31.21;30.46
8320;BME280;4197;42.130;24.746;2022-08-11T13:18:56;99170.50;;;31.26;30.42
8320;BME280;4197;42.130;24.746;2022-08-11T13:21:25;99170.97;;;31.19;30.21
8320;BME280;4197;42.130;24.746;2022-08-11T13:23:54;99161.75;;;31.07;31.05
8320;BME280;4197;42.130;24.746;2022-08-11T13:26:30;99159.75;;;31.14;30.22
8320;BME280;4197;42.130;24.746;2022-08-11T13:29:21;99151.22;;;31.45;30.15
8320;BME280;4197;42.130;24.746;2022-08-11T13:31:52;99158.41;;;31.63;30.01
8320;BME280;4197;42.130;24.746;2022-08-11T13:34:23;99151.81;;;31.77;30.55
8320;BME280;4197;42.130;24.746;2022-08-11T13:36:54;99163.00;;;31.72;30.89
8320;BME280;4197;42.130;24.746;2022-08-11T13:39:25;99151.81;;;31.77;30.88
8320;BME280;4197;42.130;24.746;2022-08-11T13:41:57;99152.28;;;31.59;31.13
8320;BME280;4197;42.130;24.746;2022-08-11T13:44:27;99149.22;;;31.51;31.12
8320;BME280;4197;42.130;24.746;2022-08-11T13:47:02;99154.66;;;31.18;31.14
8320;BME280;4197;42.130;24.746;2022-08-11T13:49:34;99143.59;;;30.92;31.76
8320;BME280;4197;42.130;24.746;2022-08-11T13:52:08;99155.13;;;30.67;31.79
8320;BME280;4197;42.130;24.746;2022-08-11T13:54:41;99142.72;;;30.74;31.69
8320;BME280;4197;42.130;24.746;2022-08-11T13:57:11;99142.44;;;30.66;31.84
8320;BME280;4197;42.130;24.746;2022-08-11T14:00:03;99145.28;;;30.78;32.21
8320;BME280;4197;42.130;24.746;2022-08-11T14:02:56;99139.56;;;30.98;31.87
8320;BME280;4197;42.130;24.746;2022-08-11T14:05:26;99141.63;;;31.03;31.44
8320;BME280;4197;42.130;24.746;2022-08-11T14:07:58;99140.16;;;31.14;31.32
8320;BME280;4197;42.130;24.746;2022-08-11T14:10:30;99141.97;;;31.28;30.40
8320;BME280;4197;42.130;24.746;2022-08-11T14:13:02;99133.78;;;31.13;31.26
8320;BME280;4197;42.130;24.746;2022-08-11T14:15:51;99142.56;;;31.38;31.66
8320;BME280;4197;42.130;24.746;2022-08-11T14:18:25;99128.72;;;31.23;32.10
8320;BME280;4197;42.130;24.746;2022-08-11T14:20:57;99141.78;;;30.83;32.72
8320;BME280;4197;42.130;24.746;2022-08-11T14:23:45;99143.13;;;30.56;33.23
8320;BME280;4197;42.130;24.746;2022-08-11T14:26:17;99138.50;;;30.47;33.24
8320;BME280;4197;42.130;24.746;2022-08-11T14:28:54;99145.09;;;30.44;33.11
8320;BME280;4197;42.130;24.746;2022-08-11T14:31:25;99151.19;;;30.48;33.65
8320;BME280;4197;42.130;24.746;2022-08-11T14:33:58;99151.09;;;30.31;33.68
8320;BME280;4197;42.130;24.746;2022-08-11T14:36:31;99151.81;;;30.26;33.91
8320;BME280;4197;42.130;24.746;2022-08-11T14:39:03;99156.63;;;30.26;33.12
8320;BME280;4197;42.130;24.746;2022-08-11T14:41:33;99146.75;;;30.30;33.47
8320;BME280;4197;42.130;24.746;2022-08-11T14:44:40;99149.00;;;30.26;33.99
8320;BME280;4197;42.130;24.746;2022-08-11T14:47:30;99149.94;;;30.17;33.77
8320;BME280;4197;42.130;24.746;2022-08-11T14:50:01;99149.03;;;30.00;34.03
8320;BME280;4197;42.130;24.746;2022-08-11T14:52:42;99156.94;;;30.01;34.12
8320;BME280;4197;42.130;24.746;2022-08-11T14:55:12;99150.53;;;30.01;34.36
8320;BME280;4197;42.130;24.746;2022-08-11T14:58:00;99153.91;;;30.05;33.54
8320;BME280;4197;42.130;24.746;2022-08-11T15:00:30;99144.56;;;30.14;33.66
8320;BME280;4197;42.130;24.746;2022-08-11T15:03:02;99144.47;;;30.02;33.12
8320;BME280;4197;42.130;24.746;2022-08-11T15:05:50;99151.03;;;30.26;32.30
8320;BME280;4197;42.130;24.746;2022-08-11T15:08:28;99153.66;;;30.35;32.44
8320;BME280;4197;42.130;24.746;2022-08-11T15:11:15;99149.09;;;30.37;31.90
8320;BME280;4197;42.130;24.746;2022-08-11T15:14:03;99158.94;;;30.01;31.97